createdAt,value
2019-02-24T00:00:41.468Z,24.12
2019-02-24T00:03:10.077Z,23.03
2019-02-24T00:05:38.740Z,20.82
2019-02-24T00:08:07.386Z,20.82
2019-02-24T00:10:36.104Z,21.15
2019-02-24T00:13:04.734Z,21.30
2019-02-24T00:15:33.252Z,20.45
2019-02-24T00:18:01.722Z,18.73
2019-02-24T00:20:30.202Z,20.77
2019-02-24T00:22:58.686Z,18.27
2019-02-24T00:25:27.218Z,19.10
2019-02-24T00:27:55.700Z,20.25
2019-02-24T00:30:24.159Z,20.30
2019-02-24T00:32:52.770Z,20.77
2019-02-24T00:35:21.510Z,22.05
2019-02-24T00:37:50.006Z,22.17
2019-02-24T00:40:18.497Z,18.40
2019-02-24T00:42:46.957Z,20.92
2019-02-24T00:45:15.486Z,19.67
2019-02-24T00:47:43.980Z,18.77
2019-02-24T00:50:12.567Z,20.45
2019-02-24T00:52:41.307Z,19.93
2019-02-24T00:55:10.020Z,21.37
2019-02-24T00:57:38.622Z,18.35
2019-02-24T01:00:10.464Z,18.35
2019-02-24T01:02:39.017Z,21.77
2019-02-24T01:05:08.861Z,18.20
2019-02-24T01:07:37.336Z,19.00
2019-02-24T01:10:08.657Z,21.82
2019-02-24T01:12:37.142Z,23.50
2019-02-24T01:15:08.709Z,22.90
2019-02-24T01:17:37.173Z,22.80
2019-02-24T01:20:08.393Z,20.37
2019-02-24T01:22:37.132Z,21.80
2019-02-24T01:25:06.026Z,25.72
2019-02-24T01:27:34.475Z,25.45
2019-02-24T01:30:03.130Z,24.63
2019-02-24T01:32:31.587Z,28.12
2019-02-24T01:35:00.092Z,29.90
2019-02-24T01:37:28.941Z,28.75
2019-02-24T01:39:57.393Z,25.10
2019-02-24T01:42:25.980Z,24.27
2019-02-24T01:44:54.526Z,26.10
2019-02-24T01:47:23.373Z,24.80
2019-02-24T01:49:52.059Z,24.47
2019-02-24T01:52:20.892Z,25.37
2019-02-24T01:54:49.428Z,27.62
2019-02-24T01:57:17.913Z,24.03
2019-02-24T01:59:46.618Z,25.27
2019-02-24T02:02:15.148Z,26.85
2019-02-24T02:04:43.654Z,23.40
2019-02-24T02:07:12.142Z,24.92
2019-02-24T02:09:40.615Z,21.87
2019-02-24T02:12:09.215Z,23.40
2019-02-24T02:14:37.721Z,23.35
2019-02-24T02:17:06.168Z,22.97
2019-02-24T02:19:34.648Z,24.55
2019-02-24T02:22:03.180Z,29.67
2019-02-24T02:24:31.671Z,24.80
2019-02-24T02:27:00.140Z,23.52
2019-02-24T02:29:28.634Z,23.02
2019-02-24T02:31:57.101Z,26.10
2019-02-24T02:34:25.590Z,21.80
2019-02-24T02:36:54.075Z,24.18
2019-02-24T02:39:22.812Z,23.92
2019-02-24T02:41:51.232Z,23.95
2019-02-24T02:44:19.730Z,23.10
2019-02-24T02:46:48.664Z,22.30
2019-02-24T02:49:17.153Z,25.70
2019-02-24T02:51:45.604Z,20.82
2019-02-24T02:54:14.082Z,24.18
2019-02-24T02:56:42.635Z,25.02
2019-02-24T02:59:11.119Z,25.07
2019-02-24T03:01:39.764Z,22.57
2019-02-24T03:04:08.351Z,22.75
2019-02-24T03:06:41.504Z,26.23
2019-02-24T03:09:10.895Z,23.63
2019-02-24T03:11:39.450Z,23.45
2019-02-24T03:14:07.934Z,24.67
2019-02-24T03:16:36.409Z,24.55
2019-02-24T03:19:04.894Z,22.40
2019-02-24T03:21:33.403Z,21.60
2019-02-24T03:24:01.906Z,25.20
2019-02-24T03:26:30.370Z,23.83
2019-02-24T03:29:04.143Z,22.60
2019-02-24T03:31:29.118Z,24.07
2019-02-24T03:33:57.598Z,20.82
2019-02-24T03:36:26.161Z,23.67
2019-02-24T03:38:54.643Z,24.37
2019-02-24T03:41:23.250Z,24.23
2019-02-24T03:43:51.786Z,20.23
2019-02-24T03:46:20.334Z,22.35
2019-02-24T03:48:48.813Z,21.55
2019-02-24T03:51:17.296Z,23.40
2019-02-24T03:53:46.021Z,20.35
2019-02-24T03:56:14.617Z,24.20
2019-02-24T03:58:43.253Z,19.82
2019-02-24T04:01:11.845Z,20.93
2019-02-24T04:03:40.493Z,20.48
2019-02-24T04:06:09.029Z,20.00
2019-02-24T04:08:37.484Z,19.80
2019-02-24T04:11:05.960Z,22.10
2019-02-24T04:13:36.023Z,21.05
2019-02-24T04:16:04.561Z,21.50
2019-02-24T04:18:33.050Z,20.20
2019-02-24T04:21:02.554Z,21.85
2019-02-24T04:23:31.075Z,19.12
2019-02-24T04:25:59.641Z,21.52
2019-02-24T04:28:28.232Z,20.10
2019-02-24T04:30:56.782Z,20.60
2019-02-24T04:33:25.265Z,19.42
2019-02-24T04:35:53.739Z,19.67
2019-02-24T04:38:22.226Z,21.50
2019-02-24T04:40:50.713Z,18.12
2019-02-24T04:43:19.181Z,19.23
2019-02-24T04:45:47.899Z,18.27
2019-02-24T04:48:16.386Z,18.32
2019-02-24T04:50:44.930Z,18.55
2019-02-24T04:53:13.412Z,17.30
2019-02-24T04:55:41.907Z,17.62
2019-02-24T04:58:10.619Z,16.85
2019-02-24T05:00:39.118Z,20.20
2019-02-24T05:03:07.573Z,18.10
2019-02-24T05:05:36.031Z,19.17
2019-02-24T05:08:04.512Z,18.42
2019-02-24T05:10:32.981Z,18.17
2019-02-24T05:13:01.465Z,19.42
2019-02-24T05:15:29.958Z,18.82
2019-02-24T05:17:58.428Z,18.02
2019-02-24T05:20:26.919Z,19.42
2019-02-24T05:22:55.386Z,21.55
2019-02-24T05:25:23.870Z,17.95
2019-02-24T05:27:52.325Z,22.40
2019-02-24T05:30:20.867Z,19.02
2019-02-24T05:32:49.422Z,18.52
2019-02-24T05:35:17.892Z,18.20
2019-02-24T05:37:46.399Z,18.67
2019-02-24T05:40:14.932Z,19.48
2019-02-24T05:42:43.449Z,21.50
2019-02-24T05:45:12.088Z,19.52
2019-02-24T05:47:40.613Z,20.68
2019-02-24T05:50:09.251Z,19.75
2019-02-24T05:52:37.733Z,18.25
2019-02-24T05:55:06.979Z,20.77
2019-02-24T05:57:35.496Z,18.50
2019-02-24T06:00:04.492Z,19.73
2019-02-24T06:02:32.955Z,20.48
2019-02-24T06:05:01.523Z,19.57
2019-02-24T06:07:29.989Z,20.60
2019-02-24T06:09:58.483Z,20.75
2019-02-24T06:12:26.954Z,21.55
2019-02-24T06:14:55.433Z,19.57
2019-02-24T06:17:24.055Z,19.15
2019-02-24T06:19:52.530Z,20.63
2019-02-24T06:22:21.017Z,22.25
2019-02-24T06:24:49.467Z,20.45
2019-02-24T06:27:17.998Z,21.80
2019-02-24T06:29:46.627Z,21.27
2019-02-24T06:32:15.088Z,18.98
2019-02-24T06:34:43.589Z,23.70
2019-02-24T06:37:12.067Z,21.43
2019-02-24T06:39:40.684Z,25.62
2019-02-24T06:42:09.213Z,19.60
2019-02-24T06:44:37.758Z,20.62
2019-02-24T06:47:06.222Z,18.07
2019-02-24T06:49:34.712Z,21.35
2019-02-24T06:52:03.172Z,18.90
2019-02-24T06:54:31.637Z,22.80
2019-02-24T06:57:00.131Z,21.70
2019-02-24T06:59:28.677Z,19.98
2019-02-24T07:01:57.321Z,21.35
2019-02-24T07:04:25.791Z,20.30
2019-02-24T07:06:54.255Z,21.60
2019-02-24T07:09:22.734Z,23.00
2019-02-24T07:11:51.426Z,22.48
2019-02-24T07:14:20.003Z,23.67
2019-02-24T07:16:48.525Z,21.90
2019-02-24T07:19:16.986Z,23.20
2019-02-24T07:21:45.479Z,24.20
2019-02-24T07:24:13.950Z,23.27
2019-02-24T07:26:42.510Z,24.55
2019-02-24T07:29:11.093Z,22.80
2019-02-24T07:31:39.613Z,21.48
2019-02-24T07:34:08.091Z,17.62
2019-02-24T07:36:36.540Z,21.80
2019-02-24T07:39:05.462Z,21.00
2019-02-24T07:41:33.915Z,18.27
2019-02-24T07:44:02.769Z,17.05
2019-02-24T07:46:31.341Z,17.65
2019-02-24T07:48:59.867Z,19.82
2019-02-24T07:51:28.346Z,19.42
2019-02-24T07:53:56.935Z,18.20
2019-02-24T07:56:25.570Z,18.37
2019-02-24T07:58:54.096Z,17.57
2019-02-24T08:01:22.572Z,15.75
2019-02-24T08:03:51.079Z,18.37
2019-02-24T08:06:19.610Z,15.23
2019-02-24T08:08:48.246Z,15.83
2019-02-24T08:11:16.701Z,14.40
2019-02-24T08:13:45.458Z,15.55
2019-02-24T08:16:13.968Z,16.60
2019-02-24T08:18:49.223Z,19.65
2019-02-24T08:21:12.752Z,18.73
2019-02-24T08:23:41.189Z,19.77
2019-02-24T08:26:09.721Z,16.37
2019-02-24T08:28:38.333Z,17.00
2019-02-24T08:31:06.861Z,16.45
2019-02-24T08:33:35.424Z,15.28
2019-02-24T08:36:03.985Z,14.73
2019-02-24T08:38:34.590Z,17.00
2019-02-24T08:41:03.599Z,15.43
2019-02-24T08:43:32.096Z,13.98
2019-02-24T08:46:00.563Z,14.10
2019-02-24T08:48:29.060Z,16.35
2019-02-24T08:50:57.514Z,14.98
2019-02-24T08:53:26.008Z,16.15
2019-02-24T08:55:54.534Z,20.08
2019-02-24T08:58:23.017Z,15.28
2019-02-24T09:00:51.529Z,18.55
2019-02-24T09:03:20.344Z,15.57
2019-02-24T09:05:48.859Z,14.80
2019-02-24T09:08:17.570Z,13.88
2019-02-24T09:10:46.141Z,14.30
2019-02-24T09:13:14.616Z,14.13
2019-02-24T09:15:43.076Z,15.05
2019-02-24T09:18:11.622Z,12.60
2019-02-24T09:20:40.276Z,14.95
2019-02-24T09:23:08.843Z,13.73
2019-02-24T09:25:37.373Z,15.00
2019-02-24T09:28:05.980Z,13.78
2019-02-24T09:30:34.538Z,13.90
2019-02-24T09:33:03.126Z,13.70
2019-02-24T09:35:31.603Z,18.10
2019-02-24T09:38:00.088Z,14.30
2019-02-24T09:40:28.726Z,13.48
2019-02-24T09:42:57.481Z,15.95
2019-02-24T09:45:26.109Z,13.93
2019-02-24T09:47:54.632Z,16.80
2019-02-24T09:50:23.191Z,13.10
2019-02-24T09:52:51.645Z,16.12
2019-02-24T09:55:20.133Z,13.40
2019-02-24T09:57:48.608Z,16.82
2019-02-24T10:00:17.638Z,13.05
2019-02-24T10:02:46.167Z,13.17
2019-02-24T10:05:14.635Z,12.85
2019-02-24T10:07:43.130Z,13.72
2019-02-24T10:10:12.937Z,12.70
2019-02-24T10:12:41.580Z,11.00
2019-02-24T10:15:14.566Z,12.47
2019-02-24T10:17:43.216Z,10.60
2019-02-24T10:20:12.904Z,10.95
2019-02-24T10:22:41.367Z,11.80
2019-02-24T10:25:10.493Z,13.08
2019-02-24T10:27:39.119Z,12.75
2019-02-24T10:30:13.655Z,13.87
2019-02-24T10:35:10.405Z,10.75
2019-02-24T10:37:38.910Z,9.35
2019-02-24T10:40:12.394Z,10.75
2019-02-24T10:42:41.175Z,11.57
2019-02-24T10:45:15.737Z,10.13
2019-02-24T10:47:44.422Z,8.63
2019-02-24T10:50:15.139Z,8.75
2019-02-24T10:52:43.701Z,13.68
2019-02-24T10:55:12.484Z,10.60
2019-02-24T10:57:41.120Z,10.18
2019-02-24T11:00:14.593Z,13.40
2019-02-24T11:02:43.212Z,10.95
2019-02-24T11:05:11.945Z,10.87
2019-02-24T11:07:40.429Z,11.97
2019-02-24T11:10:10.069Z,11.20
2019-02-24T11:12:38.670Z,12.00
2019-02-24T11:15:09.479Z,10.75
2019-02-24T11:17:38.249Z,9.35
2019-02-24T11:20:09.884Z,9.60
2019-02-24T11:22:38.473Z,9.45
2019-02-24T11:25:08.584Z,8.15
2019-02-24T11:27:37.181Z,8.03
2019-02-24T11:30:08.623Z,10.00
2019-02-24T11:32:37.168Z,9.40
2019-02-24T11:35:10.464Z,9.97
2019-02-24T11:37:39.112Z,12.43
2019-02-24T11:40:10.633Z,10.68
2019-02-24T11:42:39.089Z,10.93
2019-02-24T11:45:09.222Z,9.95
2019-02-24T11:47:37.852Z,10.28
2019-02-24T11:50:09.092Z,10.15
2019-02-24T11:52:37.624Z,7.72
2019-02-24T11:55:07.623Z,8.78
2019-02-24T11:57:36.171Z,9.35
2019-02-24T12:00:06.982Z,7.87
2019-02-24T12:02:35.626Z,7.80
2019-02-24T12:05:05.745Z,7.63
2019-02-24T12:07:34.236Z,8.03
2019-02-24T12:10:02.786Z,8.70
2019-02-24T12:12:31.258Z,8.53
2019-02-24T12:14:59.813Z,9.13
2019-02-24T12:17:28.426Z,9.68
2019-02-24T12:19:56.979Z,8.43
2019-02-24T12:22:25.538Z,7.67
2019-02-24T12:24:54.088Z,8.08
2019-02-24T12:27:22.564Z,7.40
2019-02-24T12:29:51.151Z,8.65
2019-02-24T12:32:19.597Z,8.35
2019-02-24T12:34:48.108Z,8.00
2019-02-24T12:37:17.491Z,8.40
2019-02-24T12:39:46.264Z,6.83
2019-02-24T12:42:14.741Z,7.20
2019-02-24T12:44:43.283Z,9.08
2019-02-24T12:47:11.727Z,7.60
2019-02-24T12:49:40.291Z,8.78
2019-02-24T12:52:08.902Z,6.67
2019-02-24T12:54:37.461Z,6.60
2019-02-24T12:57:05.985Z,6.80
2019-02-24T12:59:34.557Z,6.47
2019-02-24T13:02:05.743Z,5.37
2019-02-24T13:04:33.429Z,7.27
2019-02-24T13:07:01.948Z,7.03
2019-02-24T13:09:30.443Z,5.70
2019-02-24T13:11:59.030Z,6.42
2019-02-24T13:14:27.756Z,8.00
2019-02-24T13:16:56.824Z,6.47
2019-02-24T13:19:25.310Z,6.08
2019-02-24T13:21:53.957Z,6.75
2019-02-24T13:24:22.619Z,6.05
2019-02-24T13:26:51.299Z,6.78
2019-02-24T13:29:20.051Z,6.83
2019-02-24T13:31:48.661Z,5.65
2019-02-24T13:34:17.204Z,8.33
2019-02-24T13:36:45.663Z,5.80
2019-02-24T13:39:14.264Z,6.47
2019-02-24T13:41:43.032Z,6.83
2019-02-24T13:44:11.632Z,6.73
2019-02-24T13:46:40.138Z,7.12
2019-02-24T13:49:08.683Z,6.52
2019-02-24T13:51:37.185Z,6.15
2019-02-24T13:54:05.781Z,8.90
2019-02-24T13:56:34.223Z,6.92
2019-02-24T13:59:02.782Z,7.20
2019-02-24T14:01:31.249Z,5.53
2019-02-24T14:03:59.790Z,6.83
2019-02-24T14:06:28.347Z,7.53
2019-02-24T14:08:56.866Z,7.30
2019-02-24T14:11:25.431Z,8.18
2019-02-24T14:13:53.997Z,9.63
2019-02-24T14:16:22.445Z,8.83
2019-02-24T14:18:50.925Z,9.97
2019-02-24T14:21:19.644Z,9.37
2019-02-24T14:23:48.158Z,9.70
2019-02-24T14:26:16.736Z,7.17
2019-02-24T14:28:45.263Z,7.47
2019-02-24T14:31:13.713Z,7.60
2019-02-24T14:33:42.247Z,7.50
2019-02-24T14:36:10.778Z,8.63
2019-02-24T14:38:39.396Z,9.65
2019-02-24T14:41:08.959Z,6.25
2019-02-24T14:43:37.709Z,6.28
2019-02-24T14:46:06.244Z,9.15
2019-02-24T14:48:34.700Z,6.08
2019-02-24T14:51:04.353Z,5.86
2019-02-24T14:53:34.136Z,7.60
2019-02-24T14:56:02.689Z,7.03
2019-02-24T14:58:31.159Z,6.87
2019-02-24T15:01:00.735Z,5.65
2019-02-24T15:03:29.379Z,6.07
2019-02-24T15:05:57.972Z,8.75
2019-02-24T15:08:26.789Z,5.37
2019-02-24T15:10:55.403Z,7.10
2019-02-24T15:13:24.160Z,6.75
2019-02-24T15:15:52.682Z,6.40
2019-02-24T15:18:21.180Z,8.23
2019-02-24T15:20:49.769Z,6.55
2019-02-24T15:23:18.516Z,5.57
2019-02-24T15:25:47.153Z,11.28
2019-02-24T15:28:15.663Z,10.18
2019-02-24T15:30:44.272Z,7.53
2019-02-24T15:33:12.862Z,5.65
2019-02-24T15:35:41.432Z,7.05
2019-02-24T15:38:09.990Z,7.12
2019-02-24T15:40:38.586Z,5.47
2019-02-24T15:43:07.159Z,6.58
2019-02-24T15:45:35.791Z,6.22
2019-02-24T15:48:04.392Z,5.25
2019-02-24T15:50:32.941Z,7.00
2019-02-24T15:53:01.493Z,8.43
2019-02-24T15:55:30.027Z,6.10
2019-02-24T15:57:58.697Z,5.30
2019-02-24T16:00:27.296Z,6.95
2019-02-24T16:03:01.531Z,9.28
2019-02-24T16:05:26.417Z,6.25
2019-02-24T16:07:54.911Z,6.35
2019-02-24T16:10:23.727Z,6.80
2019-02-24T16:12:52.337Z,7.90
2019-02-24T16:15:23.477Z,8.30
2019-02-24T16:17:52.068Z,6.08
2019-02-24T16:20:23.183Z,5.80
2019-02-24T16:22:51.767Z,6.40
2019-02-24T16:25:20.488Z,6.63
2019-02-24T16:27:49.037Z,8.45
2019-02-24T16:30:17.932Z,7.62
2019-02-24T16:32:46.508Z,7.95
2019-02-24T16:35:16.607Z,8.17
2019-02-24T16:37:45.210Z,6.97
2019-02-24T16:40:19.602Z,8.10
2019-02-24T16:42:48.123Z,7.60
2019-02-24T16:45:17.099Z,7.58
2019-02-24T16:47:45.768Z,9.20
2019-02-24T16:50:18.542Z,8.45
2019-02-24T16:52:47.088Z,7.97
2019-02-24T16:55:16.481Z,9.83
2019-02-24T16:57:45.096Z,8.18
2019-02-24T17:00:27.875Z,8.35
2019-02-24T17:02:57.956Z,8.98
2019-02-24T17:05:26.863Z,8.13
2019-02-24T17:07:55.317Z,7.78
2019-02-24T17:10:28.363Z,8.63
2019-02-24T17:12:57.421Z,9.13
2019-02-24T17:15:26.189Z,11.68
2019-02-24T17:17:54.846Z,14.63
2019-02-24T17:20:24.840Z,9.35
2019-02-24T17:22:53.363Z,10.03
2019-02-24T17:25:21.983Z,9.05
2019-02-24T17:27:50.514Z,8.53
2019-02-24T17:30:19.145Z,8.80
2019-02-24T17:32:47.692Z,8.93
2019-02-24T17:35:16.214Z,8.78
2019-02-24T17:37:44.847Z,8.97
2019-02-24T17:40:19.630Z,7.90
2019-02-24T17:42:48.441Z,8.45
2019-02-24T17:45:17.056Z,9.20
2019-02-24T17:47:45.683Z,8.33
2019-02-24T17:50:15.677Z,8.85
2019-02-24T17:52:44.367Z,8.38
2019-02-24T17:55:14.479Z,8.73
2019-02-24T17:57:43.096Z,18.65
2019-02-24T18:00:29.998Z,16.02
2019-02-24T18:02:58.661Z,13.80
2019-02-24T18:05:27.277Z,12.03
2019-02-24T18:07:56.045Z,11.83
2019-02-24T18:10:24.673Z,14.47
2019-02-24T18:12:53.202Z,13.78
2019-02-24T18:15:21.848Z,12.10
2019-02-24T18:17:50.325Z,14.47
2019-02-24T18:20:20.660Z,11.63
2019-02-24T18:22:49.403Z,10.73
2019-02-24T18:25:17.893Z,12.55
2019-02-24T18:27:46.440Z,12.68
2019-02-24T18:30:31.066Z,15.43
2019-02-24T18:32:59.867Z,12.45
2019-02-24T18:35:28.496Z,13.22
2019-02-24T18:37:57.266Z,12.90
2019-02-24T18:40:25.800Z,11.12
2019-02-24T18:43:00.139Z,11.70
2019-02-24T18:45:24.979Z,14.00
2019-02-24T18:47:53.494Z,15.78
2019-02-24T18:50:22.330Z,16.73
2019-02-24T18:52:50.804Z,14.85
2019-02-24T18:55:19.595Z,16.42
2019-02-24T18:57:48.030Z,14.63
2019-02-24T19:00:18.590Z,11.88
2019-02-24T19:02:47.170Z,13.65
2019-02-24T19:05:15.764Z,14.73
2019-02-24T19:07:44.321Z,18.52
2019-02-24T19:10:17.879Z,13.90
2019-02-24T19:12:46.526Z,14.67
2019-02-24T19:15:23.064Z,14.70
2019-02-24T19:17:51.769Z,17.20
2019-02-24T19:20:21.708Z,17.70
2019-02-24T19:22:50.240Z,13.10
2019-02-24T19:25:18.796Z,14.78
2019-02-24T19:27:47.245Z,15.03
2019-02-24T19:30:17.402Z,16.40
2019-02-24T19:32:46.202Z,14.90
2019-02-24T19:35:16.105Z,16.93
2019-02-24T19:37:45.049Z,16.48
2019-02-24T19:40:18.266Z,14.75
2019-02-24T19:42:46.800Z,15.63
2019-02-24T19:45:17.232Z,17.37
2019-02-24T19:47:45.839Z,18.40
2019-02-24T19:50:16.760Z,21.23
2019-02-24T19:52:45.557Z,22.75
2019-02-24T19:55:15.255Z,20.67
2019-02-24T19:57:44.204Z,35.73
2019-02-24T20:00:18.294Z,35.08
2019-02-24T20:02:46.886Z,42.20
2019-02-24T20:05:15.520Z,24.27
2019-02-24T20:07:44.098Z,26.15
2019-02-24T20:10:30.326Z,30.12
2019-02-24T20:12:58.793Z,27.27
2019-02-24T20:15:27.330Z,36.85
2019-02-24T20:17:55.910Z,35.60
2019-02-24T20:20:24.440Z,33.23
2019-02-24T20:22:53.135Z,29.92
2019-02-24T20:25:23.044Z,27.40
2019-02-24T20:27:51.626Z,22.42
2019-02-24T20:30:31.942Z,21.40
2019-02-24T20:33:00.775Z,21.65
2019-02-24T20:35:29.453Z,24.18
2019-02-24T20:37:57.991Z,32.50
2019-02-24T20:40:26.581Z,25.40
2019-02-24T20:42:55.197Z,28.40
2019-02-24T20:45:24.637Z,28.50
2019-02-24T20:47:53.426Z,32.25
2019-02-24T20:50:27.191Z,30.72
2019-02-24T20:52:56.045Z,27.37
2019-02-24T20:55:24.514Z,26.97
2019-02-24T20:57:53.109Z,25.03
2019-02-24T21:00:30.242Z,25.30
2019-02-24T21:02:58.851Z,31.42
2019-02-24T21:05:27.464Z,38.33
2019-02-24T21:07:56.248Z,36.10
2019-02-24T21:10:24.769Z,33.55
2019-02-24T21:12:53.220Z,39.42
2019-02-24T21:15:21.802Z,34.05
2019-02-24T21:17:50.313Z,36.70
2019-02-24T21:20:26.949Z,38.00
2019-02-24T21:22:55.903Z,34.08
2019-02-24T21:25:24.457Z,30.68
2019-02-24T21:27:53.038Z,24.02
2019-02-24T21:30:22.134Z,22.50
2019-02-24T21:32:50.791Z,20.10
2019-02-24T21:35:19.377Z,22.45
2019-02-24T21:37:48.217Z,19.95
2019-02-24T21:40:18.793Z,16.85
2019-02-24T21:42:47.618Z,13.98
2019-02-24T21:45:21.678Z,18.95
2019-02-24T21:50:18.347Z,19.95
2019-02-24T21:52:47.143Z,19.02
2019-02-24T21:55:15.984Z,14.23
2019-02-24T21:57:44.700Z,13.60
2019-02-24T22:00:21.628Z,12.27
2019-02-24T22:02:50.215Z,15.58
2019-02-24T22:05:18.820Z,12.23
2019-02-24T22:07:47.538Z,12.58
2019-02-24T22:10:16.742Z,12.78
2019-02-24T22:12:45.505Z,9.40
2019-02-24T22:15:21.931Z,12.10
2019-02-24T22:17:50.429Z,13.75
2019-02-24T22:20:19.019Z,14.18
2019-02-24T22:22:47.881Z,12.98
2019-02-24T22:25:16.679Z,12.13
2019-02-24T22:27:45.284Z,14.90
2019-02-24T22:30:16.260Z,14.03
2019-02-24T22:32:44.771Z,14.50
2019-02-24T22:35:13.367Z,14.25
2019-02-24T22:37:42.048Z,12.05
2019-02-24T22:40:16.603Z,14.47
2019-02-24T22:42:46.526Z,12.60
2019-02-24T22:45:20.043Z,13.55
2019-02-24T22:47:48.840Z,12.53
2019-02-24T22:50:17.630Z,11.97
2019-02-24T22:52:46.826Z,17.62
2019-02-24T22:55:16.540Z,13.23
2019-02-24T22:57:45.128Z,14.38
2019-02-24T23:00:54.634Z,12.53
2019-02-24T23:03:31.750Z,12.45
2019-02-24T23:06:00.643Z,14.58
2019-02-24T23:08:29.258Z,13.45
2019-02-24T23:10:57.850Z,17.60
2019-02-24T23:13:26.687Z,11.43
2019-02-24T23:15:55.200Z,13.80
2019-02-24T23:18:23.753Z,14.98
2019-02-24T23:20:52.403Z,14.47
2019-02-24T23:23:20.875Z,18.23
2019-02-24T23:25:49.513Z,15.50
2019-02-24T23:28:18.053Z,14.23
2019-02-24T23:30:46.505Z,12.85
2019-02-24T23:33:14.977Z,13.63
2019-02-24T23:35:43.503Z,16.30
2019-02-24T23:38:12.148Z,19.30
2019-02-24T23:40:40.750Z,14.73
2019-02-24T23:43:09.308Z,12.60
2019-02-24T23:45:38.228Z,16.63
2019-02-24T23:48:06.854Z,12.80
2019-02-24T23:50:35.378Z,11.25
2019-02-24T23:53:04.308Z,15.63
2019-02-24T23:55:32.794Z,14.47
2019-02-24T23:58:01.861Z,15.05
